sensor_id;sensor_type;location;lat;lon;timestamp;pressure;altitude;pressure_sealevel;temperature;humidity
55263;BME280;41125;48.752;9.168;2023-04-02T00:00:24;96080.00;;;6.39;85.33
55263;BME280;41125;48.752;9.168;2023-04-02T00:02:28;96082.72;;;6.39;84.83
55263;BME280;41125;48.752;9.168;2023-04-02T00:03:02;96077.31;;;6.39;84.74
55263;BME280;41125;48.752;9.168;2023-04-02T00:04:04;96071.94;;;6.39;84.81
55263;BME280;41125;48.752;9.168;2023-04-02T00:04:38;96074.63;;;6.39;84.50
55263;BME280;41125;48.752;9.168;2023-04-02T00:06:34;96072.25;;;6.32;85.46
55263;BME280;41125;48.752;9.168;2023-04-02T00:07:27;96077.66;;;6.32;85.26
55263;BME280;41125;48.752;9.168;2023-04-02T00:08:05;96080.63;;;6.31;85.39
55263;BME280;41125;48.752;9.168;2023-04-02T00:08:40;96080.63;;;6.31;85.40
55263;BME280;41125;48.752;9.168;2023-04-02T00:09:34;96089.81;;;6.30;85.87
55263;BME280;41125;48.752;9.168;2023-04-02T00:10:26;96082.25;;;6.32;85.78
55263;BME280;41125;48.752;9.168;2023-04-02T00:11:01;96083.31;;;6.31;85.49
55263;BME280;41125;48.752;9.168;2023-04-02T00:11:35;96087.09;;;6.30;85.46
55263;BME280;41125;48.752;9.168;2023-04-02T00:12:16;96089.00;;;6.29;85.77
55263;BME280;41125;48.752;9.168;2023-04-02T00:13:32;96094.16;;;6.26;85.54
55263;BME280;41125;48.752;9.168;2023-04-02T00:14:14;96090.37;;;6.27;85.60
55263;BME280;41125;48.752;9.168;2023-04-02T00:14:48;96090.37;;;6.27;85.69
55263;BME280;41125;48.752;9.168;2023-04-02T00:15:21;96088.75;;;6.26;86.01
55263;BME280;41125;48.752;9.168;2023-04-02T00:15:55;96087.16;;;6.25;85.94
55263;BME280;41125;48.752;9.168;2023-04-02T00:16:28;96086.34;;;6.24;86.18
55263;BME280;41125;48.752;9.168;2023-04-02T00:17:02;96089.34;;;6.23;85.99
55263;BME280;41125;48.752;9.168;2023-04-02T00:17:34;96079.66;;;6.22;86.31
55263;BME280;41125;48.752;9.168;2023-04-02T00:18:05;96086.66;;;6.23;86.59
55263;BME280;41125;48.752;9.168;2023-04-02T00:18:44;96095.03;;;6.21;86.54
55263;BME280;41125;48.752;9.168;2023-04-02T00:19:34;96085.53;;;6.24;86.02
55263;BME280;41125;48.752;9.168;2023-04-02T00:20:07;96095.75;;;6.27;86.17
55263;BME280;41125;48.752;9.168;2023-04-02T00:20:41;96089.56;;;6.26;85.71
55263;BME280;41125;48.752;9.168;2023-04-02T00:21:39;96099.53;;;6.26;86.09
55263;BME280;41125;48.752;9.168;2023-04-02T00:22:20;96094.16;;;6.26;86.10
55263;BME280;41125;48.752;9.168;2023-04-02T00:22:53;96094.75;;;6.23;86.23
55263;BME280;41125;48.752;9.168;2023-04-02T00:23:27;96090.94;;;6.24;85.93
55263;BME280;41125;48.752;9.168;2023-04-02T00:24:01;96090.94;;;6.24;86.12
55263;BME280;41125;48.752;9.168;2023-04-02T00:24:38;96096.00;;;6.30;85.48
55263;BME280;41125;48.752;9.168;2023-04-02T00:25:12;96097.59;;;6.31;85.60
55263;BME280;41125;48.752;9.168;2023-04-02T00:25:44;96092.44;;;6.35;85.45
55263;BME280;41125;48.752;9.168;2023-04-02T00:26:31;96094.06;;;6.36;85.46
55263;BME280;41125;48.752;9.168;2023-04-02T00:27:09;96098.13;;;6.33;85.68
55263;BME280;41125;48.752;9.168;2023-04-02T00:27:42;96097.59;;;6.31;85.25
55263;BME280;41125;48.752;9.168;2023-04-02T00:28:19;96090.87;;;6.29;85.44
55263;BME280;41125;48.752;9.168;2023-04-02T00:28:51;96092.78;;;6.28;85.50
55263;BME280;41125;48.752;9.168;2023-04-02T00:29:22;96096.84;;;6.26;85.72
55263;BME280;41125;48.752;9.168;2023-04-02T00:29:55;96105.72;;;6.26;86.16
55263;BME280;41125;48.752;9.168;2023-04-02T00:30:29;96097.94;;;6.25;86.36
55263;BME280;41125;48.752;9.168;2023-04-02T00:31:01;96095.53;;;6.23;86.41
55263;BME280;41125;48.752;9.168;2023-04-02T00:31:33;96093.34;;;6.25;86.47
55263;BME280;41125;48.752;9.168;2023-04-02T00:32:19;96103.31;;;6.25;86.15
55263;BME280;41125;48.752;9.168;2023-04-02T00:32:51;96106.31;;;6.23;86.03
55263;BME280;41125;48.752;9.168;2023-04-02T00:33:26;96102.31;;;6.21;86.59
55263;BME280;41125;48.752;9.168;2023-04-02T00:34:00;96108.25;;;6.18;87.12
55263;BME280;41125;48.752;9.168;2023-04-02T00:34:36;96102.06;;;6.17;87.28
55263;BME280;41125;48.752;9.168;2023-04-02T00:35:24;96099.66;;;6.16;87.15
55263;BME280;41125;48.752;9.168;2023-04-02T00:35:56;96099.66;;;6.16;87.16
55263;BME280;41125;48.752;9.168;2023-04-02T00:36:30;96100.75;;;6.15;87.17
55263;BME280;41125;48.752;9.168;2023-04-02T00:37:04;96105.03;;;6.16;86.81
55263;BME280;41125;48.752;9.168;2023-04-02T00:37:36;96111.22;;;6.16;86.60
55263;BME280;41125;48.752;9.168;2023-04-02T00:38:23;96102.34;;;6.16;86.95
55263;BME280;41125;48.752;9.168;2023-04-02T00:38:57;96101.78;;;6.19;86.50
55263;BME280;41125;48.752;9.168;2023-04-02T00:39:33;96103.38;;;6.20;86.56
55263;BME280;41125;48.752;9.168;2023-04-02T00:40:23;96103.38;;;6.20;86.38
55263;BME280;41125;48.752;9.168;2023-04-02T00:40:58;96100.69;;;6.20;86.51
55263;BME280;41125;48.752;9.168;2023-04-02T00:41:32;96105.53;;;6.23;86.46
55263;BME280;41125;48.752;9.168;2023-04-02T00:42:06;96108.22;;;6.23;86.72
55263;BME280;41125;48.752;9.168;2023-04-02T00:42:37;96110.91;;;6.23;86.61
55263;BME280;41125;48.752;9.168;2023-04-02T00:43:13;96108.69;;;6.25;86.47
55263;BME280;41125;48.752;9.168;2023-04-02T00:43:47;96108.69;;;6.25;86.08
55263;BME280;41125;48.752;9.168;2023-04-02T00:44:22;96104.91;;;6.26;85.89
55263;BME280;41125;48.752;9.168;2023-04-02T00:44:53;96111.41;;;6.25;86.15
55263;BME280;41125;48.752;9.168;2023-04-02T00:45:30;96107.09;;;6.24;86.22
55263;BME280;41125;48.752;9.168;2023-04-02T00:46:13;96107.41;;;6.22;86.71
55263;BME280;41125;48.752;9.168;2023-04-02T00:46:46;96111.19;;;6.21;86.92
55263;BME280;41125;48.752;9.168;2023-04-02T00:47:25;96114.69;;;6.22;86.76
55263;BME280;41125;48.752;9.168;2023-04-02T00:49:11;96110.91;;;6.23;87.14
55263;BME280;41125;48.752;9.168;2023-04-02T00:49:47;96106.59;;;6.22;87.08
55263;BME280;41125;48.752;9.168;2023-04-02T00:50:29;96103.66;;;6.18;87.13
55263;BME280;41125;48.752;9.168;2023-04-02T00:51:15;96110.09;;;6.22;87.13
55263;BME280;41125;48.752;9.168;2023-04-02T00:52:00;96105.53;;;6.23;86.92
55263;BME280;41125;48.752;9.168;2023-04-02T00:52:34;96108.22;;;6.23;87.02
55263;BME280;41125;48.752;9.168;2023-04-02T00:53:12;96106.31;;;6.23;87.21
55263;BME280;41125;48.752;9.168;2023-04-02T00:53:47;96103.31;;;6.25;86.85
55263;BME280;41125;48.752;9.168;2023-04-02T00:54:21;96103.31;;;6.25;86.95
55263;BME280;41125;48.752;9.168;2023-04-02T00:55:11;96107.91;;;6.24;86.70
55263;BME280;41125;48.752;9.168;2023-04-02T00:55:49;96106.81;;;6.25;86.78
55263;BME280;41125;48.752;9.168;2023-04-02T00:56:38;96103.22;;;6.35;86.60
55263;BME280;41125;48.752;9.168;2023-04-02T00:57:20;96108.28;;;6.42;85.88
55263;BME280;41125;48.752;9.168;2023-04-02T00:57:57;96107.47;;;6.41;85.99
55263;BME280;41125;48.752;9.168;2023-04-02T00:58:34;96106.69;;;6.41;85.60
55263;BME280;41125;48.752;9.168;2023-04-02T00:59:33;96106.37;;;6.42;85.88
55263;BME280;41125;48.752;9.168;2023-04-02T01:00:31;96105.81;;;6.45;85.65
55263;BME280;41125;48.752;9.168;2023-04-02T01:01:13;96103.94;;;6.46;85.02
55263;BME280;41125;48.752;9.168;2023-04-02T01:01:51;96108.53;;;6.45;84.98
55263;BME280;41125;48.752;9.168;2023-04-02T01:02:28;96104.75;;;6.46;85.51
55263;BME280;41125;48.752;9.168;2023-04-02T01:03:32;96104.44;;;6.48;85.32
55263;BME280;41125;48.752;9.168;2023-04-02T01:04:04;96104.69;;;6.51;85.46
55263;BME280;41125;48.752;9.168;2023-04-02T01:04:35;96105.22;;;6.53;84.67
55263;BME280;41125;48.752;9.168;2023-04-02T01:05:34;96105.78;;;6.50;84.88
55263;BME280;41125;48.752;9.168;2023-04-02T01:06:09;96107.94;;;6.48;84.99
55263;BME280;41125;48.752;9.168;2023-04-02T01:06:42;96116.84;;;6.49;85.08
55263;BME280;41125;48.752;9.168;2023-04-02T01:07:13;96109.56;;;6.49;85.13
55263;BME280;41125;48.752;9.168;2023-04-02T01:08:14;96110.66;;;6.48;85.23
55263;BME280;41125;48.752;9.168;2023-04-02T01:09:20;96110.94;;;6.47;84.91
55263;BME280;41125;48.752;9.168;2023-04-02T01:10:17;96116.56;;;6.50;85.04
55263;BME280;41125;48.752;9.168;2023-04-02T01:11:12;96102.16;;;6.60;84.50
55263;BME280;41125;48.752;9.168;2023-04-02T01:13:32;96118.28;;;6.65;83.64
55263;BME280;41125;48.752;9.168;2023-04-02T01:14:25;96114.25;;;6.62;83.70
55263;BME280;41125;48.752;9.168;2023-04-02T01:15:16;96114.72;;;6.69;83.37
55263;BME280;41125;48.752;9.168;2023-04-02T01:16:05;96112.31;;;6.68;83.52
55263;BME280;41125;48.752;9.168;2023-04-02T01:17:16;96123.44;;;6.61;83.64
55263;BME280;41125;48.752;9.168;2023-04-02T01:19:38;96114.81;;;6.59;83.75
55263;BME280;41125;48.752;9.168;2023-04-02T01:23:46;96116.78;;;6.78;82.51
55263;BME280;41125;48.752;9.168;2023-04-02T01:24:27;96122.69;;;6.80;82.59
55263;BME280;41125;48.752;9.168;2023-04-02T01:25:02;96126.47;;;6.79;82.29
55263;BME280;41125;48.752;9.168;2023-04-02T01:25:52;96119.38;;;6.88;82.11
55263;BME280;41125;48.752;9.168;2023-04-02T01:26:38;96115.13;;;6.82;82.21
55263;BME280;41125;48.752;9.168;2023-04-02T01:27:39;96129.19;;;6.79;82.13
55263;BME280;41125;48.752;9.168;2023-04-02T01:28:25;96121.59;;;6.81;82.43
55263;BME280;41125;48.752;9.168;2023-04-02T01:29:21;96118.84;;;6.86;81.82
55263;BME280;41125;48.752;9.168;2023-04-02T01:29:55;96124.31;;;6.81;81.84
55263;BME280;41125;48.752;9.168;2023-04-02T01:30:28;96124.34;;;6.76;82.37
55263;BME280;41125;48.752;9.168;2023-04-02T01:31:01;96128.94;;;6.75;82.56
55263;BME280;41125;48.752;9.168;2023-04-02T01:31:33;96125.09;;;6.81;82.53
55263;BME280;41125;48.752;9.168;2023-04-02T01:32:12;96129.06;;;6.89;81.76
55263;BME280;41125;48.752;9.168;2023-04-02T01:32:45;96131.09;;;6.97;81.45
55263;BME280;41125;48.752;9.168;2023-04-02T01:33:26;96127.41;;;6.93;81.66
55263;BME280;41125;48.752;9.168;2023-04-02T01:34:02;96128.56;;;6.87;81.56
55263;BME280;41125;48.752;9.168;2023-04-02T01:34:34;96129.41;;;6.82;81.81
55263;BME280;41125;48.752;9.168;2023-04-02T01:35:07;96129.69;;;6.81;82.25
55263;BME280;41125;48.752;9.168;2023-04-02T01:35:43;96132.97;;;6.78;82.30
55263;BME280;41125;48.752;9.168;2023-04-02T01:38:02;96127.22;;;7.08;80.62
55263;BME280;41125;48.752;9.168;2023-04-02T01:38:47;96126.75;;;7.01;80.50
55263;BME280;41125;48.752;9.168;2023-04-02T01:40:52;96128.97;;;6.94;80.96
55263;BME280;41125;48.752;9.168;2023-04-02T01:41:38;96131.34;;;7.00;80.51
55263;BME280;41125;48.752;9.168;2023-04-02T01:42:32;96134.31;;;6.99;80.70
55263;BME280;41125;48.752;9.168;2023-04-02T01:43:34;96129.50;;;6.96;81.05
55263;BME280;41125;48.752;9.168;2023-04-02T01:44:09;96135.13;;;6.99;80.64
55263;BME280;41125;48.752;9.168;2023-04-02T01:44:52;96127.31;;;6.98;80.66
55263;BME280;41125;48.752;9.168;2023-04-02T01:45:24;96135.50;;;6.93;80.75
55263;BME280;41125;48.752;9.168;2023-04-02T01:45:57;96137.69;;;6.91;80.92
55263;BME280;41125;48.752;9.168;2023-04-02T01:46:31;96139.06;;;6.88;81.35
55263;BME280;41125;48.752;9.168;2023-04-02T01:47:03;96132.81;;;6.93;80.89
55263;BME280;41125;48.752;9.168;2023-04-02T01:47:39;96137.88;;;6.94;81.07
55263;BME280;41125;48.752;9.168;2023-04-02T01:48:17;96140.09;;;6.92;80.87
55263;BME280;41125;48.752;9.168;2023-04-02T01:48:51;96143.28;;;6.94;81.40
55263;BME280;41125;48.752;9.168;2023-04-02T01:49:23;96133.81;;;6.97;81.07
55263;BME280;41125;48.752;9.168;2023-04-02T01:50:55;96134.22;;;6.85;81.61
55263;BME280;41125;48.752;9.168;2023-04-02T01:51:30;96138.81;;;6.85;82.08
55263;BME280;41125;48.752;9.168;2023-04-02T01:52:02;96136.13;;;6.85;81.71
55263;BME280;41125;48.752;9.168;2023-04-02T01:52:38;96136.41;;;6.83;81.87
55263;BME280;41125;48.752;9.168;2023-04-02T01:53:14;96130.22;;;6.83;81.92
55263;BME280;41125;48.752;9.168;2023-04-02T01:53:46;96141.81;;;6.83;81.93
55263;BME280;41125;48.752;9.168;2023-04-02T01:54:18;96134.69;;;6.92;81.10
55263;BME280;41125;48.752;9.168;2023-04-02T01:54:51;96136.78;;;6.95;81.28
55263;BME280;41125;48.752;9.168;2023-04-02T01:55:50;96141.03;;;7.01;80.88
55263;BME280;41125;48.752;9.168;2023-04-02T01:56:23;96143.50;;;6.98;80.68
55263;BME280;41125;48.752;9.168;2023-04-02T01:56:54;96140.00;;;6.97;80.51
55263;BME280;41125;48.752;9.168;2023-04-02T01:57:27;96137.06;;;6.94;81.02
55263;BME280;41125;48.752;9.168;2023-04-02T01:58:00;96143.06;;;6.91;80.91
55263;BME280;41125;48.752;9.168;2023-04-02T01:58:32;96141.19;;;6.91;81.00
55263;BME280;41125;48.752;9.168;2023-04-02T01:59:03;96140.38;;;6.91;81.19
55263;BME280;41125;48.752;9.168;2023-04-02T01:59:38;96141.47;;;6.90;81.44
55263;BME280;41125;48.752;9.168;2023-04-02T02:00:14;96144.16;;;6.90;81.16
55263;BME280;41125;48.752;9.168;2023-04-02T02:00:56;96147.38;;;6.92;81.11
55263;BME280;41125;48.752;9.168;2023-04-02T02:01:37;96137.06;;;6.94;80.81
55263;BME280;41125;48.752;9.168;2023-04-02T02:02:11;96143.59;;;6.93;81.05
55263;BME280;41125;48.752;9.168;2023-04-02T02:02:46;96137.88;;;6.94;80.82
55263;BME280;41125;48.752;9.168;2023-04-02T02:03:18;96142.69;;;6.97;80.86
55263;BME280;41125;48.752;9.168;2023-04-02T02:03:52;96139.72;;;6.99;80.08
55263;BME280;41125;48.752;9.168;2023-04-02T02:04:24;96144.53;;;7.02;80.50
55263;BME280;41125;48.752;9.168;2023-04-02T02:04:59;96145.56;;;7.06;80.24
55263;BME280;41125;48.752;9.168;2023-04-02T02:05:31;96146.59;;;7.10;79.74
55263;BME280;41125;48.752;9.168;2023-04-02T02:06:05;96144.47;;;7.07;79.86
55263;BME280;41125;48.752;9.168;2023-04-02T02:06:39;96143.97;;;7.05;80.21
55263;BME280;41125;48.752;9.168;2023-04-02T02:07:14;96140.22;;;7.01;80.04
55263;BME280;41125;48.752;9.168;2023-04-02T02:07:47;96139.19;;;6.97;80.56
55263;BME280;41125;48.752;9.168;2023-04-02T02:08:46;96140.91;;;6.93;80.95
55263;BME280;41125;48.752;9.168;2023-04-02T02:09:22;96148.38;;;6.96;80.93
55263;BME280;41125;48.752;9.168;2023-04-02T02:09:56;96142.47;;;6.94;80.61
55263;BME280;41125;48.752;9.168;2023-04-02T02:10:33;96142.78;;;6.92;80.98
55263;BME280;41125;48.752;9.168;2023-04-02T02:11:09;96143.28;;;6.94;81.01
55263;BME280;41125;48.752;9.168;2023-04-02T02:11:43;96151.87;;;6.96;80.93
55263;BME280;41125;48.752;9.168;2023-04-02T02:12:15;96144.25;;;7.03;80.07
55263;BME280;41125;48.752;9.168;2023-04-02T02:12:47;96145.56;;;7.06;80.24
55263;BME280;41125;48.752;9.168;2023-04-02T02:13:20;96143.38;;;7.08;79.77
55263;BME280;41125;48.752;9.168;2023-04-02T02:13:59;96152.56;;;7.07;79.67
55263;BME280;41125;48.752;9.168;2023-04-02T02:14:32;96149.94;;;7.02;79.82
55263;BME280;41125;48.752;9.168;2023-04-02T02:15:07;96154.28;;;6.98;80.66
55263;BME280;41125;48.752;9.168;2023-04-02T02:15:43;96143.28;;;6.94;80.54
55263;BME280;41125;48.752;9.168;2023-04-02T02:16:16;96149.28;;;6.91;81.12
55263;BME280;41125;48.752;9.168;2023-04-02T02:16:48;96150.66;;;6.89;81.03
55263;BME280;41125;48.752;9.168;2023-04-02T02:17:30;96153.63;;;6.87;81.47
55263;BME280;41125;48.752;9.168;2023-04-02T02:18:05;96145.03;;;6.85;82.02
55263;BME280;41125;48.752;9.168;2023-04-02T02:18:37;96152.59;;;6.83;82.37
55263;BME280;41125;48.752;9.168;2023-04-02T02:19:40;96143.75;;;6.78;82.52
55263;BME280;41125;48.752;9.168;2023-04-02T02:20:14;96154.00;;;6.76;82.98
55263;BME280;41125;48.752;9.168;2023-04-02T02:20:46;96157.28;;;6.72;82.76
55263;BME280;41125;48.752;9.168;2023-04-02T02:21:41;96151.09;;;6.72;83.14
55263;BME280;41125;48.752;9.168;2023-04-02T02:22:29;96150.28;;;6.71;82.98
55263;BME280;41125;48.752;9.168;2023-04-02T02:23:08;96148.09;;;6.73;82.69
55263;BME280;41125;48.752;9.168;2023-04-02T02:23:40;96153.50;;;6.73;82.61
55263;BME280;41125;48.752;9.168;2023-04-02T02:24:27;96158.87;;;6.73;82.77
55263;BME280;41125;48.752;9.168;2023-04-02T02:25:09;96152.94;;;6.77;82.74
55263;BME280;41125;48.752;9.168;2023-04-02T02:25:43;96155.06;;;6.80;82.52
55263;BME280;41125;48.752;9.168;2023-04-02T02:26:17;96155.06;;;6.80;82.04
55263;BME280;41125;48.752;9.168;2023-04-02T02:29:06;96165.28;;;6.83;81.97
55263;BME280;41125;48.752;9.168;2023-04-02T02:29:42;96163.09;;;6.85;81.68
55263;BME280;41125;48.752;9.168;2023-04-02T02:30:30;96158.03;;;7.02;80.80
55263;BME280;41125;48.752;9.168;2023-04-02T02:31:08;96165.19;;;7.12;80.04
55263;BME280;41125;48.752;9.168;2023-04-02T02:31:44;96164.41;;;7.11;79.92
55263;BME280;41125;48.752;9.168;2023-04-02T02:32:20;96167.72;;;7.03;80.11
55263;BME280;41125;48.752;9.168;2023-04-02T02:33:24;96165.44;;;6.91;81.42
55263;BME280;41125;48.752;9.168;2023-04-02T02:34:03;96172.22;;;6.89;81.14
55263;BME280;41125;48.752;9.168;2023-04-02T02:35:42;96172.78;;;6.86;81.41
55263;BME280;41125;48.752;9.168;2023-04-02T02:36:53;96172.78;;;6.86;81.71
55263;BME280;41125;48.752;9.168;2023-04-02T02:37:29;96168.94;;;6.92;81.12
55263;BME280;41125;48.752;9.168;2023-04-02T02:40:23;96175.53;;;6.81;81.63
55263;BME280;41125;48.752;9.168;2023-04-02T02:41:12;96175.03;;;6.79;82.08
55263;BME280;41125;48.752;9.168;2023-04-02T02:42:17;96178.81;;;6.78;82.96
55263;BME280;41125;48.752;9.168;2023-04-02T02:42:58;96176.63;;;6.80;82.51
55263;BME280;41125;48.752;9.168;2023-04-02T02:43:32;96176.63;;;6.80;82.46
55263;BME280;41125;48.752;9.168;2023-04-02T02:44:17;96180.69;;;6.77;82.74
55263;BME280;41125;48.752;9.168;2023-04-02T02:44:51;96171.28;;;6.75;83.01
55263;BME280;41125;48.752;9.168;2023-04-02T02:45:30;96185.28;;;6.77;83.00
55263;BME280;41125;48.752;9.168;2023-04-02T02:46:03;96182.31;;;6.78;83.22
55263;BME280;41125;48.752;9.168;2023-04-02T02:46:46;96181.50;;;6.78;83.27
55263;BME280;41125;48.752;9.168;2023-04-02T02:47:25;96176.63;;;6.80;83.18
55263;BME280;41125;48.752;9.168;2023-04-02T02:47:58;96179.31;;;6.80;82.70
55263;BME280;41125;48.752;9.168;2023-04-02T02:48:36;96187.94;;;6.82;83.25
55263;BME280;41125;48.752;9.168;2023-04-02T02:49:17;96183.63;;;6.81;82.58
55263;BME280;41125;48.752;9.168;2023-04-02T02:49:54;96181.50;;;6.78;82.88
55263;BME280;41125;48.752;9.168;2023-04-02T02:50:28;96178.00;;;6.77;82.78
55263;BME280;41125;48.752;9.168;2023-04-02T02:51:05;96181.25;;;6.74;83.06
55263;BME280;41125;48.752;9.168;2023-04-02T02:51:45;96183.44;;;6.72;82.90
55263;BME280;41125;48.752;9.168;2023-04-02T02:52:27;96181.03;;;6.70;83.29
55263;BME280;41125;48.752;9.168;2023-04-02T02:53:10;96182.13;;;6.69;82.99
55263;BME280;41125;48.752;9.168;2023-04-02T02:53:47;96181.59;;;6.67;83.48
55263;BME280;41125;48.752;9.168;2023-04-02T02:54:20;96182.41;;;6.68;83.36
55263;BME280;41125;48.752;9.168;2023-04-02T02:54:56;96181.59;;;6.67;83.71
55263;BME280;41125;48.752;9.168;2023-04-02T02:55:35;96179.69;;;6.68;83.58
55263;BME280;41125;48.752;9.168;2023-04-02T02:56:11;96184.47;;;6.76;83.35
55263;BME280;41125;48.752;9.168;2023-04-02T02:56:49;96189.53;;;6.83;82.59
55263;BME280;41125;48.752;9.168;2023-04-02T02:57:35;96183.06;;;6.84;82.75
55263;BME280;41125;48.752;9.168;2023-04-02T02:58:15;96186.31;;;6.81;82.65
55263;BME280;41125;48.752;9.168;2023-04-02T02:58:51;96190.09;;;6.80;82.79
55263;BME280;41125;48.752;9.168;2023-04-02T02:59:23;96187.41;;;6.80;83.04
55263;BME280;41125;48.752;9.168;2023-04-02T02:59:57;96185.00;;;6.78;83.16
55263;BME280;41125;48.752;9.168;2023-04-02T03:00:31;96186.88;;;6.78;83.07
55263;BME280;41125;48.752;9.168;2023-04-02T03:01:03;96190.09;;;6.80;83.19
55263;BME280;41125;48.752;9.168;2023-04-02T03:01:35;96185.13;;;6.92;81.94
55263;BME280;41125;48.752;9.168;2023-04-02T03:02:07;96191.00;;;6.94;82.02
55263;BME280;41125;48.752;9.168;2023-04-02T03:02:40;96186.75;;;6.93;81.84
55263;BME280;41125;48.752;9.168;2023-04-02T03:03:22;96190.53;;;6.92;82.16
55263;BME280;41125;48.752;9.168;2023-04-02T03:03:54;96186.78;;;6.88;82.17
55263;BME280;41125;48.752;9.168;2023-04-02T03:04:26;96186.84;;;6.83;83.19
55263;BME280;41125;48.752;9.168;2023-04-02T03:05:00;96189.59;;;6.78;83.66
55263;BME280;41125;48.752;9.168;2023-04-02T03:05:34;96191.25;;;6.73;83.92
55263;BME280;41125;48.752;9.168;2023-04-02T03:06:08;96188.03;;;6.71;84.08
55263;BME280;41125;48.752;9.168;2023-04-02T03:06:40;96196.41;;;6.70;84.07
55263;BME280;41125;48.752;9.168;2023-04-02T03:07:12;96193.97;;;6.68;83.91
55263;BME280;41125;48.752;9.168;2023-04-02T03:07:48;96189.69;;;6.67;84.11
55263;BME280;41125;48.752;9.168;2023-04-02T03:08:38;96192.38;;;6.67;84.06
55263;BME280;41125;48.752;9.168;2023-04-02T03:09:21;96193.97;;;6.68;84.29
55263;BME280;41125;48.752;9.168;2023-04-02T03:10:09;96193.19;;;6.68;84.66
55263;BME280;41125;48.752;9.168;2023-04-02T03:10:51;96195.34;;;6.66;85.04
55263;BME280;41125;48.752;9.168;2023-04-02T03:11:40;96195.34;;;6.66;84.80
55263;BME280;41125;48.752;9.168;2023-04-02T03:13:33;96199.91;;;6.70;84.56
55263;BME280;41125;48.752;9.168;2023-04-02T03:14:27;96200.97;;;6.69;84.90
55263;BME280;41125;48.752;9.168;2023-04-02T03:16:37;96209.12;;;6.64;85.08
55263;BME280;41125;48.752;9.168;2023-04-02T03:17:18;96193.22;;;6.63;85.01
55263;BME280;41125;48.752;9.168;2023-04-02T03:18:16;96203.72;;;6.64;85.02
55263;BME280;41125;48.752;9.168;2023-04-02T03:19:04;96211.53;;;6.66;85.01
55263;BME280;41125;48.752;9.168;2023-04-02T03:19:46;96201.56;;;6.66;84.97
55263;BME280;41125;48.752;9.168;2023-04-02T03:20:39;96203.97;;;6.68;84.52
55263;BME280;41125;48.752;9.168;2023-04-02T03:21:32;96200.47;;;6.67;84.46
55263;BME280;41125;48.752;9.168;2023-04-02T03:23:27;96208.03;;;6.65;84.64
55263;BME280;41125;48.752;9.168;2023-04-02T03:24:02;96201.84;;;6.65;84.83
55263;BME280;41125;48.752;9.168;2023-04-02T03:24:58;96209.12;;;6.64;84.82
55263;BME280;41125;48.752;9.168;2023-04-02T03:25:45;96205.63;;;6.64;84.93
55263;BME280;41125;48.752;9.168;2023-04-02T03:27:04;96208.31;;;6.64;85.14
55263;BME280;41125;48.752;9.168;2023-04-02T03:27:41;96210.19;;;6.63;85.14
55263;BME280;41125;48.752;9.168;2023-04-02T03:28:19;96214.50;;;6.64;85.08
55263;BME280;41125;48.752;9.168;2023-04-02T03:29:02;96215.88;;;6.62;85.54
55263;BME280;41125;48.752;9.168;2023-04-02T03:29:44;96209.69;;;6.61;85.66
55263;BME280;41125;48.752;9.168;2023-04-02T03:30:49;96211.75;;;6.69;84.61
55263;BME280;41125;48.752;9.168;2023-04-02T03:31:31;96213.37;;;6.70;84.71
55263;BME280;41125;48.752;9.168;2023-04-02T03:33:05;96215.50;;;6.73;84.54
55263;BME280;41125;48.752;9.168;2023-04-02T03:33:45;96210.69;;;6.70;84.93
55263;BME280;41125;48.752;9.168;2023-04-02T03:34:41;96213.84;;;6.78;84.24
55263;BME280;41125;48.752;9.168;2023-04-02T03:35:40;96213.75;;;6.88;83.26
55263;BME280;41125;48.752;9.168;2023-04-02T03:36:23;96221.19;;;6.96;82.88
55263;BME280;41125;48.752;9.168;2023-04-02T03:37:10;96227.63;;;7.00;82.41
55263;BME280;41125;48.752;9.168;2023-04-02T03:37:52;96223.09;;;6.95;82.59
55263;BME280;41125;48.752;9.168;2023-04-02T03:38:35;96224.50;;;6.93;82.85
55263;BME280;41125;48.752;9.168;2023-04-02T03:40:19;96222.13;;;6.86;83.09
55263;BME280;41125;48.752;9.168;2023-04-02T03:41:22;96224.06;;;6.81;83.57
55263;BME280;41125;48.752;9.168;2023-04-02T03:42:20;96224.62;;;6.78;83.68
55263;BME280;41125;48.752;9.168;2023-04-02T03:43:02;96233.81;;;6.77;83.89
55263;BME280;41125;48.752;9.168;2023-04-02T03:43:41;96232.78;;;6.72;83.74
55263;BME280;41125;48.752;9.168;2023-04-02T03:44:32;96231.16;;;6.71;84.05
55263;BME280;41125;48.752;9.168;2023-04-02T03:45:15;96227.94;;;6.69;84.54
55263;BME280;41125;48.752;9.168;2023-04-02T03:46:16;96228.19;;;6.73;84.28
55263;BME280;41125;48.752;9.168;2023-04-02T03:46:56;96225.78;;;6.71;84.37
55263;BME280;41125;48.752;9.168;2023-04-02T03:47:50;96239.53;;;6.70;84.19
55263;BME280;41125;48.752;9.168;2023-04-02T03:49:33;96226.63;;;6.67;84.78
55263;BME280;41125;48.752;9.168;2023-04-02T03:52:19;96237.94;;;6.69;84.62
55263;BME280;41125;48.752;9.168;2023-04-02T03:52:52;96240.06;;;6.72;84.38
55263;BME280;41125;48.752;9.168;2023-04-02T03:53:25;96233.84;;;6.71;84.09
55263;BME280;41125;48.752;9.168;2023-04-02T03:53:57;96244.63;;;6.71;84.28
55263;BME280;41125;48.752;9.168;2023-04-02T03:54:29;96243.03;;;6.70;84.33
55263;BME280;41125;48.752;9.168;2023-04-02T03:55:08;96249.50;;;6.69;84.42
55263;BME280;41125;48.752;9.168;2023-04-02T03:55:41;96235.50;;;6.67;84.68
55263;BME280;41125;48.752;9.168;2023-04-02T03:56:29;96247.38;;;6.66;85.30
55263;BME280;41125;48.752;9.168;2023-04-02T03:57:05;96245.25;;;6.63;85.65
55263;BME280;41125;48.752;9.168;2023-04-02T03:57:58;96250.06;;;6.66;85.12
55263;BME280;41125;48.752;9.168;2023-04-02T03:58:41;96250.84;;;6.72;84.91
55263;BME280;41125;48.752;9.168;2023-04-02T03:59:59;96246.53;;;6.71;84.50
55263;BME280;41125;48.752;9.168;2023-04-02T04:01:44;96248.47;;;6.65;84.44
55263;BME280;41125;48.752;9.168;2023-04-02T04:02:40;96237.69;;;6.65;84.84
55263;BME280;41125;48.752;9.168;2023-04-02T04:03:22;96250.06;;;6.66;84.71
55263;BME280;41125;48.752;9.168;2023-04-02T04:04:02;96243.31;;;6.69;84.74
55263;BME280;41125;48.752;9.168;2023-04-02T04:04:39;96249.78;;;6.68;84.52
55263;BME280;41125;48.752;9.168;2023-04-02T04:05:25;96249.78;;;6.68;84.61
55263;BME280;41125;48.752;9.168;2023-04-02T04:06:01;96250.06;;;6.66;85.04
55263;BME280;41125;48.752;9.168;2023-04-02T04:06:41;96249.28;;;6.66;84.82